createdAt,value
2018-03-31T00:01:49.710Z,98617.22
2018-03-31T00:04:17.548Z,98614.10
2018-03-31T00:06:45.344Z,98611.72
2018-03-31T00:09:13.217Z,98614.47
2018-03-31T00:11:40.999Z,98602.33
2018-03-31T00:14:08.814Z,98603.98
2018-03-31T00:16:36.652Z,98599.91
2018-03-31T00:19:04.548Z,98594.31
2018-03-31T00:21:32.338Z,98586.84
2018-03-31T00:24:00.205Z,98578.61
2018-03-31T00:26:28.007Z,98575.92
2018-03-31T00:28:57.477Z,98565.86
2018-03-31T00:31:25.240Z,98562.48
2018-03-31T00:33:53.106Z,98541.30
2018-03-31T00:36:20.890Z,98541.88
2018-03-31T00:38:48.715Z,98535.77
2018-03-31T00:41:16.580Z,98538.66
2018-03-31T00:43:44.354Z,98529.23
2018-03-31T00:46:12.142Z,98527.58
2018-03-31T00:48:39.940Z,98521.34
2018-03-31T00:51:07.739Z,98525.81
2018-03-31T00:53:35.525Z,98519.84
2018-03-31T00:56:03.366Z,98517.13
2018-03-31T00:58:31.129Z,98511.55
2018-03-31T01:00:58.941Z,98507.66
2018-03-31T01:03:26.803Z,98505.98
2018-03-31T01:05:54.608Z,98492.95
2018-03-31T01:08:22.458Z,98493.11
2018-03-31T01:10:50.252Z,98494.63
2018-03-31T01:13:18.048Z,98491.73
2018-03-31T01:15:45.845Z,98488.36
2018-03-31T01:18:13.664Z,98492.74
2018-03-31T01:20:41.448Z,98488.67
2018-03-31T01:23:09.231Z,98486.96
2018-03-31T01:25:37.097Z,98482.78
2018-03-31T01:28:04.877Z,98482.13
2018-03-31T01:30:32.660Z,98476.45
2018-03-31T01:33:00.442Z,98485.73
2018-03-31T01:35:28.214Z,98482.47
2018-03-31T01:37:58.207Z,98487.67
2018-03-31T01:40:26.370Z,98481.11
2018-03-31T01:42:54.171Z,98476.67
2018-03-31T01:45:21.956Z,98478.52
2018-03-31T01:47:49.754Z,98482.23
2018-03-31T01:50:17.599Z,98486.18
2018-03-31T01:52:45.636Z,98489.39
2018-03-31T01:55:13.501Z,98482.23
2018-03-31T01:57:41.287Z,98475.95
2018-03-31T02:00:09.087Z,98469.45
2018-03-31T02:02:37.044Z,98466.97
2018-03-31T02:05:05.221Z,98463.34
2018-03-31T02:07:33.056Z,98457.56
2018-03-31T02:10:00.836Z,98455.92
2018-03-31T02:12:28.750Z,98456.67
2018-03-31T02:14:57.516Z,98449.25
2018-03-31T02:17:25.325Z,98449.95
2018-03-31T02:19:53.106Z,98435.68
2018-03-31T02:22:20.958Z,98421.84
2018-03-31T02:24:48.860Z,98418.47
2018-03-31T02:27:16.643Z,98416.80
2018-03-31T02:29:44.441Z,98410.73
2018-03-31T02:32:12.225Z,98408.69
2018-03-31T02:34:40.009Z,98407.52
2018-03-31T02:37:07.788Z,98401.20
2018-03-31T02:39:35.657Z,98402.73
2018-03-31T02:42:03.547Z,98393.63
2018-03-31T02:44:32.557Z,98391.80
2018-03-31T02:47:00.353Z,98392.00
2018-03-31T02:49:28.337Z,98398.02
2018-03-31T02:51:56.165Z,98393.20
2018-03-31T02:54:23.953Z,98388.25
2018-03-31T02:56:51.750Z,98396.56
2018-03-31T02:59:19.543Z,98398.74
2018-03-31T03:01:47.326Z,98385.13
2018-03-31T03:04:15.154Z,98385.59
2018-03-31T03:06:42.930Z,98383.83
2018-03-31T03:09:10.731Z,98389.90
2018-03-31T03:11:38.549Z,98389.44
2018-03-31T03:14:06.347Z,98380.20
2018-03-31T03:16:34.122Z,98367.88
2018-03-31T03:19:01.940Z,98375.92
2018-03-31T03:21:29.739Z,98372.04
2018-03-31T03:23:57.531Z,98364.11
2018-03-31T03:26:25.344Z,98362.94
2018-03-31T03:28:53.138Z,98366.66
2018-03-31T03:31:20.958Z,98354.01
2018-03-31T03:33:48.731Z,98337.83
2018-03-31T03:36:16.618Z,98332.11
2018-03-31T03:38:44.385Z,98326.68
2018-03-31T03:41:12.400Z,98322.35
2018-03-31T03:43:40.290Z,98315.80
2018-03-31T03:46:08.575Z,98313.70
2018-03-31T03:48:36.355Z,98326.70
2018-03-31T03:51:04.161Z,98348.61
2018-03-31T03:53:31.936Z,98351.23
2018-03-31T03:55:59.784Z,98360.72
2018-03-31T03:58:27.562Z,98356.72
2018-03-31T04:00:55.349Z,98334.22
2018-03-31T04:03:23.126Z,98340.13
2018-03-31T04:05:50.940Z,98337.75
2018-03-31T04:08:18.723Z,98327.79
2018-03-31T04:10:46.609Z,98326.66
2018-03-31T04:13:14.384Z,98320.45
2018-03-31T04:15:42.216Z,98304.59
2018-03-31T04:18:10.227Z,98306.14
2018-03-31T04:20:38.126Z,98309.44
2018-03-31T04:23:06.007Z,98316.52
2018-03-31T04:25:33.926Z,98328.48
2018-03-31T04:28:01.708Z,98332.14
2018-03-31T04:30:29.510Z,98334.64
2018-03-31T04:32:57.285Z,98331.57
2018-03-31T04:35:25.104Z,98335.69
2018-03-31T04:37:52.921Z,98327.95
2018-03-31T04:40:20.702Z,98322.34
2018-03-31T04:42:48.493Z,98321.86
2018-03-31T04:45:16.286Z,98314.96
2018-03-31T04:47:44.061Z,98302.47
2018-03-31T04:50:11.914Z,98302.84
2018-03-31T04:52:39.728Z,98293.67
2018-03-31T04:55:07.518Z,98297.52
2018-03-31T04:57:35.308Z,98296.91
2018-03-31T05:00:03.084Z,98307.66
2018-03-31T05:02:30.895Z,98297.23
2018-03-31T05:04:58.667Z,98294.37
2018-03-31T05:07:26.471Z,98286.77
2018-03-31T05:09:54.262Z,98289.17
2018-03-31T05:12:22.074Z,98283.91
2018-03-31T05:14:49.853Z,98272.41
2018-03-31T05:17:17.652Z,98273.69
2018-03-31T05:19:45.424Z,98277.20
2018-03-31T05:22:13.247Z,98278.25
2018-03-31T05:24:41.138Z,98288.21
2018-03-31T05:27:08.943Z,98276.44
2018-03-31T05:29:36.714Z,98271.55
2018-03-31T05:32:04.542Z,98278.60
2018-03-31T05:34:32.316Z,98276.49
2018-03-31T05:37:00.114Z,98283.92
2018-03-31T05:39:27.879Z,98289.02
2018-03-31T05:41:55.740Z,98289.06
2018-03-31T05:44:23.643Z,98295.06
2018-03-31T05:46:51.453Z,98292.84
2018-03-31T05:49:19.224Z,98294.63
2018-03-31T05:51:47.001Z,98296.89
2018-03-31T05:54:14.852Z,98316.30
2018-03-31T05:56:42.631Z,98323.23
2018-03-31T05:59:10.507Z,98321.83
2018-03-31T06:01:38.474Z,98331.33
2018-03-31T06:04:06.262Z,98332.27
2018-03-31T06:06:34.104Z,98325.33
2018-03-31T06:09:02.048Z,98311.19
2018-03-31T06:11:29.820Z,98296.87
2018-03-31T06:13:57.667Z,98295.30
2018-03-31T06:16:25.431Z,98296.36
2018-03-31T06:18:53.224Z,98298.61
2018-03-31T06:21:21.019Z,98299.89
2018-03-31T06:23:48.800Z,98298.09
2018-03-31T06:26:16.649Z,98302.25
2018-03-31T06:28:44.436Z,98297.69
2018-03-31T06:31:12.228Z,98294.73
2018-03-31T06:33:40.278Z,98294.05
2018-03-31T06:36:08.076Z,98289.39
2018-03-31T06:38:35.876Z,98284.13
2018-03-31T06:41:03.683Z,98266.51
2018-03-31T06:43:31.482Z,98263.45
2018-03-31T06:45:59.259Z,98270.90
2018-03-31T06:48:27.072Z,98265.66
2018-03-31T06:50:54.856Z,98268.71
2018-03-31T06:53:22.639Z,98275.08
2018-03-31T06:55:50.494Z,98277.51
2018-03-31T06:58:18.340Z,98279.05
2018-03-31T07:00:46.130Z,98276.38
2018-03-31T07:03:13.921Z,98277.19
2018-03-31T07:05:41.714Z,98278.61
2018-03-31T07:08:09.661Z,98285.23
2018-03-31T07:10:37.487Z,98288.16
2018-03-31T07:13:05.311Z,98285.77
2018-03-31T07:15:33.195Z,98284.38
2018-03-31T07:18:01.140Z,98287.41
2018-03-31T07:20:29.016Z,98287.75
2018-03-31T07:22:57.130Z,98284.02
2018-03-31T07:25:24.972Z,98290.72
2018-03-31T07:27:52.763Z,98287.70
2018-03-31T07:30:20.620Z,98292.92
2018-03-31T07:32:48.411Z,98289.45
2018-03-31T07:35:16.192Z,98293.13
2018-03-31T07:37:44.055Z,98293.28
2018-03-31T07:40:11.891Z,98288.25
2018-03-31T07:45:06.877Z,98284.80
2018-03-31T07:47:34.649Z,98277.82
2018-03-31T07:50:02.638Z,98274.53
2018-03-31T07:52:30.411Z,98273.52
2018-03-31T07:54:58.202Z,98281.38
2018-03-31T07:57:26.948Z,98274.53
2018-03-31T07:59:54.736Z,98276.52
2018-03-31T08:02:22.536Z,98273.28
2018-03-31T08:04:50.335Z,98272.19
2018-03-31T08:07:18.373Z,98271.16
2018-03-31T08:09:46.261Z,98276.28
2018-03-31T08:12:14.057Z,98267.22
2018-03-31T08:14:41.844Z,98269.66
2018-03-31T08:17:09.688Z,98275.70
2018-03-31T08:19:37.975Z,98267.62
2018-03-31T08:22:05.801Z,98264.78
2018-03-31T08:24:33.591Z,98265.33
2018-03-31T08:27:01.371Z,98247.50
2018-03-31T08:29:29.177Z,98243.44
2018-03-31T08:31:56.959Z,98242.02
2018-03-31T08:34:24.842Z,98241.53
2018-03-31T08:36:52.634Z,98242.66
2018-03-31T08:39:20.440Z,98248.28
2018-03-31T08:41:48.262Z,98254.56
2018-03-31T08:44:16.155Z,98252.43
2018-03-31T08:46:43.948Z,98242.70
2018-03-31T08:49:11.792Z,98242.39
2018-03-31T08:51:39.622Z,98242.23
2018-03-31T08:54:07.428Z,98239.93
2018-03-31T08:56:35.234Z,98244.41
2018-03-31T08:59:03.040Z,98232.59
2018-03-31T09:01:30.882Z,98225.75
2018-03-31T09:03:58.824Z,98225.88
2018-03-31T09:06:26.597Z,98228.96
2018-03-31T09:08:54.444Z,98229.07
2018-03-31T09:11:22.229Z,98227.78
2018-03-31T09:13:50.057Z,98219.59
2018-03-31T09:16:17.866Z,98222.78
2018-03-31T09:18:45.661Z,98217.16
2018-03-31T09:21:13.489Z,98212.80
2018-03-31T09:23:41.298Z,98213.12
2018-03-31T09:26:09.163Z,98218.97
2018-03-31T09:28:37.295Z,98227.59
2018-03-31T09:31:05.472Z,98228.65
2018-03-31T09:33:33.679Z,98222.80
2018-03-31T09:36:01.770Z,98220.00
2018-03-31T09:38:29.728Z,98221.50
2018-03-31T09:40:57.575Z,98222.70
2018-03-31T09:43:25.871Z,98219.44
2018-03-31T09:45:53.678Z,98224.09
2018-03-31T09:48:21.501Z,98227.06
2018-03-31T09:50:49.313Z,98230.70
2018-03-31T09:53:17.116Z,98229.91
2018-03-31T09:55:44.904Z,98233.72
2018-03-31T09:58:12.679Z,98230.45
2018-03-31T10:00:40.533Z,98232.00
2018-03-31T10:03:08.378Z,98238.11
2018-03-31T10:05:36.187Z,98238.10
2018-03-31T10:08:03.959Z,98236.47
2018-03-31T10:10:31.769Z,98231.13
2018-03-31T10:12:59.544Z,98228.88
2018-03-31T10:15:27.340Z,98217.92
2018-03-31T10:17:55.176Z,98214.49
2018-03-31T10:20:23.068Z,98210.39
2018-03-31T10:22:50.855Z,98197.02
2018-03-31T10:25:18.651Z,98194.11
2018-03-31T10:27:46.416Z,98195.55
2018-03-31T10:30:14.269Z,98195.50
2018-03-31T10:32:42.153Z,98205.83
2018-03-31T10:35:09.955Z,98208.36
2018-03-31T10:37:37.762Z,98211.23
2018-03-31T10:40:05.556Z,98206.77
2018-03-31T10:42:33.392Z,98202.00
2018-03-31T10:45:01.155Z,98202.52
2018-03-31T10:47:28.937Z,98199.36
2018-03-31T10:49:56.730Z,98196.68
2018-03-31T10:52:24.510Z,98193.28
2018-03-31T10:54:52.377Z,98185.23
2018-03-31T10:57:20.147Z,98205.53
2018-03-31T10:59:49.668Z,98204.77
2018-03-31T11:02:17.445Z,98198.78
2018-03-31T11:04:45.345Z,98197.46
2018-03-31T11:07:13.159Z,98190.92
2018-03-31T11:09:40.972Z,98195.19
2018-03-31T11:12:08.910Z,98201.58
2018-03-31T11:14:36.695Z,98207.37
2018-03-31T11:17:04.533Z,98206.54
2018-03-31T11:19:32.385Z,98212.92
2018-03-31T11:22:00.166Z,98210.20
2018-03-31T11:24:27.968Z,98212.86
2018-03-31T11:26:56.068Z,98223.66
2018-03-31T11:29:23.920Z,98220.55
2018-03-31T11:31:51.863Z,98221.99
2018-03-31T11:34:20.025Z,98226.36
2018-03-31T11:36:47.873Z,98214.61
2018-03-31T11:39:15.796Z,98217.89
2018-03-31T11:41:43.575Z,98238.85
2018-03-31T11:44:11.400Z,98247.50
2018-03-31T11:46:39.338Z,98250.95
2018-03-31T11:49:07.242Z,98258.18
2018-03-31T11:51:35.048Z,98260.08
2018-03-31T11:54:02.838Z,98256.67
2018-03-31T11:56:30.723Z,98268.41
2018-03-31T11:58:58.514Z,98273.66
2018-03-31T12:01:26.328Z,98280.69
2018-03-31T12:03:54.185Z,98280.98
2018-03-31T12:06:22.036Z,98281.13
2018-03-31T12:08:49.953Z,98283.96
2018-03-31T12:11:17.717Z,98281.77
2018-03-31T12:13:45.574Z,98288.81
2018-03-31T12:16:13.366Z,98287.52
2018-03-31T12:18:41.177Z,98295.25
2018-03-31T12:21:08.955Z,98296.92
2018-03-31T12:23:36.756Z,98295.03
2018-03-31T12:26:04.765Z,98301.27
2018-03-31T12:28:32.566Z,98305.19
2018-03-31T12:31:00.576Z,98305.27
2018-03-31T12:33:29.375Z,98299.70
2018-03-31T12:35:57.180Z,98299.93
2018-03-31T12:38:24.962Z,98295.61
2018-03-31T12:40:52.756Z,98297.64
2018-03-31T12:43:20.582Z,98299.92
2018-03-31T12:45:48.413Z,98301.03
2018-03-31T12:48:16.196Z,98296.63
2018-03-31T12:50:43.988Z,98304.65
2018-03-31T12:53:11.854Z,98305.36
2018-03-31T12:55:39.638Z,98299.70
2018-03-31T12:58:07.496Z,98299.39
2018-03-31T13:00:35.348Z,98299.86
2018-03-31T13:03:03.116Z,98297.88
2018-03-31T13:05:30.940Z,98292.23
2018-03-31T13:07:58.741Z,98288.14
2018-03-31T13:10:27.383Z,98287.58
2018-03-31T13:12:55.272Z,98289.05
2018-03-31T13:15:23.066Z,98285.30
2018-03-31T13:17:50.844Z,98283.79
2018-03-31T13:20:18.639Z,98294.55
2018-03-31T13:22:46.429Z,98297.32
2018-03-31T13:25:14.319Z,98294.84
2018-03-31T13:27:42.082Z,98286.83
2018-03-31T13:30:09.936Z,98282.83
2018-03-31T13:32:37.710Z,98282.90
2018-03-31T13:35:05.639Z,98278.89
2018-03-31T13:37:33.390Z,98280.70
2018-03-31T13:40:01.212Z,98283.28
2018-03-31T13:42:28.985Z,98282.66
2018-03-31T13:44:56.801Z,98281.09
2018-03-31T13:47:24.619Z,98273.09
2018-03-31T13:49:52.427Z,98271.37
2018-03-31T13:52:20.233Z,98269.24
2018-03-31T13:54:48.016Z,98268.21
2018-03-31T13:57:15.899Z,98271.58
2018-03-31T13:59:43.766Z,98267.63
2018-03-31T14:02:11.569Z,98270.95
2018-03-31T14:04:39.390Z,98260.98
2018-03-31T14:07:07.183Z,98265.11
2018-03-31T14:09:34.973Z,98263.31
2018-03-31T14:12:02.766Z,98262.48
2018-03-31T14:14:30.557Z,98259.58
2018-03-31T14:16:58.371Z,98250.54
2018-03-31T14:19:26.148Z,98251.97
2018-03-31T14:21:53.947Z,98251.09
2018-03-31T14:24:21.721Z,98252.27
2018-03-31T14:26:49.575Z,98253.17
2018-03-31T14:29:17.431Z,98255.91
2018-03-31T14:31:45.262Z,98252.52
2018-03-31T14:34:13.117Z,98249.55
2018-03-31T14:36:40.970Z,98246.32
2018-03-31T14:39:09.018Z,98252.92
2018-03-31T14:41:36.815Z,98252.53
2018-03-31T14:44:04.602Z,98262.43
2018-03-31T14:46:32.443Z,98256.61
2018-03-31T14:49:00.280Z,98261.42
2018-03-31T14:51:28.092Z,98271.27
2018-03-31T14:53:55.869Z,98274.06
2018-03-31T14:56:23.693Z,98279.35
2018-03-31T14:58:51.476Z,98281.70
2018-03-31T15:01:19.283Z,98283.66
2018-03-31T15:03:47.039Z,98274.88
2018-03-31T15:06:14.851Z,98283.62
2018-03-31T15:08:48.933Z,98285.95
2018-03-31T15:11:16.711Z,98278.08
2018-03-31T15:13:44.533Z,98281.00
2018-03-31T15:16:13.110Z,98285.32
2018-03-31T15:18:40.845Z,98281.52
2018-03-31T15:21:08.646Z,98279.34
2018-03-31T15:23:36.419Z,98278.20
2018-03-31T15:26:04.218Z,98275.70
2018-03-31T15:28:32.156Z,98277.86
2018-03-31T15:30:59.860Z,98284.58
2018-03-31T15:33:28.524Z,98282.44
2018-03-31T15:35:56.309Z,98285.39
2018-03-31T15:38:24.103Z,98279.94
2018-03-31T15:40:51.889Z,98285.47
2018-03-31T15:43:19.686Z,98274.06
2018-03-31T15:45:47.504Z,98278.17
2018-03-31T15:48:15.357Z,98280.02
2018-03-31T15:50:43.335Z,98283.89
2018-03-31T15:53:11.194Z,98282.23
2018-03-31T15:55:39.197Z,98281.88
2018-03-31T15:58:07.046Z,98280.00
2018-03-31T16:00:34.834Z,98284.06
2018-03-31T16:03:02.633Z,98287.90
2018-03-31T16:05:30.606Z,98291.97
2018-03-31T16:07:58.674Z,98290.89
2018-03-31T16:10:26.695Z,98293.39
2018-03-31T16:12:54.455Z,98292.78
2018-03-31T16:15:22.253Z,98293.69
2018-03-31T16:17:50.031Z,98285.75
2018-03-31T16:20:17.874Z,98296.96
2018-03-31T16:22:45.705Z,98295.69
2018-03-31T16:25:13.509Z,98300.02
2018-03-31T16:27:41.354Z,98295.40
2018-03-31T16:30:09.155Z,98298.84
2018-03-31T16:32:36.929Z,98299.39
2018-03-31T16:35:05.001Z,98304.84
2018-03-31T16:37:32.790Z,98304.51
2018-03-31T16:40:00.607Z,98307.23
2018-03-31T16:42:28.372Z,98310.85
2018-03-31T16:44:56.170Z,98310.63
2018-03-31T16:47:24.069Z,98315.96
2018-03-31T16:49:51.860Z,98314.84
2018-03-31T16:52:19.676Z,98317.91
2018-03-31T16:54:47.488Z,98318.91
2018-03-31T16:57:15.282Z,98314.77
2018-03-31T16:59:43.080Z,98312.45
2018-03-31T17:02:10.844Z,98318.63
2018-03-31T17:04:38.649Z,98317.68
2018-03-31T17:07:06.423Z,98318.05
2018-03-31T17:09:34.270Z,98311.92
2018-03-31T17:12:02.044Z,98323.11
2018-03-31T17:14:29.845Z,98318.11
2018-03-31T17:16:57.623Z,98323.67
2018-03-31T17:19:25.409Z,98323.87
2018-03-31T17:21:53.311Z,98315.20
2018-03-31T17:24:21.152Z,98309.47
2018-03-31T17:26:48.948Z,98318.19
2018-03-31T17:29:16.745Z,98317.02
2018-03-31T17:31:44.537Z,98311.98
2018-03-31T17:34:12.307Z,98320.91
2018-03-31T17:36:40.364Z,98315.64
2018-03-31T17:39:08.105Z,98319.74
2018-03-31T17:41:35.996Z,98314.42
2018-03-31T17:44:03.801Z,98311.66
2018-03-31T17:46:31.645Z,98312.81
2018-03-31T17:48:59.524Z,98303.48
2018-03-31T17:51:27.304Z,98310.09
2018-03-31T17:53:55.089Z,98313.46
2018-03-31T17:56:22.884Z,98309.20
2018-03-31T17:58:50.675Z,98293.45
2018-03-31T18:01:18.486Z,98291.41
2018-03-31T18:03:46.314Z,98294.17
2018-03-31T18:06:14.198Z,98302.11
2018-03-31T18:08:42.261Z,98300.94
2018-03-31T18:11:10.157Z,98306.20
2018-03-31T18:13:38.013Z,98305.53
2018-03-31T18:16:05.813Z,98306.59
2018-03-31T18:18:33.598Z,98308.70
2018-03-31T18:21:01.517Z,98310.69
2018-03-31T18:23:29.361Z,98313.95
2018-03-31T18:25:57.128Z,98316.21
2018-03-31T18:28:25.007Z,98316.94
2018-03-31T18:30:52.885Z,98318.55
2018-03-31T18:33:20.705Z,98322.59
2018-03-31T18:35:48.471Z,98312.99
2018-03-31T18:38:16.270Z,98320.52
2018-03-31T18:40:44.062Z,98312.48
2018-03-31T18:43:11.853Z,98318.73
2018-03-31T18:45:39.648Z,98324.94
2018-03-31T18:48:07.436Z,98329.23
2018-03-31T18:50:35.325Z,98338.03
2018-03-31T18:53:03.117Z,98341.96
2018-03-31T18:55:30.974Z,98348.16
2018-03-31T18:57:58.873Z,98351.64
2018-03-31T19:00:26.643Z,98353.49
2018-03-31T19:02:54.587Z,98353.12
2018-03-31T19:05:22.356Z,98353.69
2018-03-31T19:07:50.166Z,98374.48
2018-03-31T19:10:18.044Z,98379.80
2018-03-31T19:12:45.839Z,98382.08
2018-03-31T19:15:13.704Z,98388.91
2018-03-31T19:17:41.495Z,98384.86
2018-03-31T19:20:09.269Z,98401.08
2018-03-31T19:22:37.072Z,98394.66
2018-03-31T19:28:04.855Z,98403.81
2018-03-31T19:30:38.356Z,98396.23
2018-03-31T19:33:06.138Z,98395.95
2018-03-31T19:35:39.438Z,98388.45
2018-03-31T19:38:07.321Z,98388.69
2018-03-31T19:40:35.108Z,98384.46
2018-03-31T19:43:02.994Z,98386.63
2018-03-31T19:45:30.803Z,98393.66
2018-03-31T19:47:58.638Z,98388.30
2018-03-31T19:50:26.505Z,98388.41
2018-03-31T19:52:54.302Z,98390.10
2018-03-31T19:55:22.183Z,98378.30
2018-03-31T19:57:50.939Z,98386.33
2018-03-31T20:00:18.838Z,98381.35
2018-03-31T20:02:46.662Z,98395.86
2018-03-31T20:05:14.463Z,98396.55
2018-03-31T20:07:42.274Z,98392.36
2018-03-31T20:10:10.070Z,98395.23
2018-03-31T20:12:37.847Z,98395.14
2018-03-31T20:15:05.732Z,98388.27
2018-03-31T20:17:33.506Z,98384.86
2018-03-31T20:20:01.396Z,98380.78
2018-03-31T20:22:29.162Z,98381.23
2018-03-31T20:24:57.018Z,98384.78
2018-03-31T20:27:24.799Z,98381.68
2018-03-31T20:29:52.650Z,98384.12
2018-03-31T20:32:20.498Z,98392.22
2018-03-31T20:34:48.272Z,98395.41
2018-03-31T20:37:16.092Z,98395.47
2018-03-31T20:39:43.900Z,98404.11
2018-03-31T20:42:11.740Z,98409.70
2018-03-31T20:44:39.558Z,98405.33
2018-03-31T20:47:07.362Z,98402.95
2018-03-31T20:49:35.327Z,98404.69
2018-03-31T20:52:03.210Z,98406.05
2018-03-31T20:54:30.987Z,98407.59
2018-03-31T20:56:58.804Z,98410.66
2018-03-31T20:59:26.594Z,98409.95
2018-03-31T21:01:54.417Z,98413.58
2018-03-31T21:04:22.438Z,98416.30
2018-03-31T21:06:50.225Z,98417.48
2018-03-31T21:09:19.169Z,98417.89
2018-03-31T21:11:46.957Z,98415.92
2018-03-31T21:14:14.842Z,98407.94
2018-03-31T21:16:42.732Z,98405.78
2018-03-31T21:19:10.524Z,98398.91
2018-03-31T21:21:38.313Z,98406.61
2018-03-31T21:24:06.171Z,98407.03
2018-03-31T21:26:33.966Z,98395.63
2018-03-31T21:29:01.827Z,98404.34
2018-03-31T21:31:29.632Z,98399.98
2018-03-31T21:33:59.279Z,98403.70
2018-03-31T21:36:27.100Z,98414.95
2018-03-31T21:38:55.006Z,98411.05
2018-03-31T21:41:22.802Z,98408.11
2018-03-31T21:43:50.657Z,98416.18
2018-03-31T21:46:18.438Z,98407.69
2018-03-31T21:48:46.230Z,98404.11
2018-03-31T21:51:14.071Z,98398.35
2018-03-31T21:53:41.943Z,98403.36
2018-03-31T21:56:09.762Z,98413.48
2018-03-31T21:58:37.565Z,98408.33
2018-03-31T22:01:05.357Z,98403.86
2018-03-31T22:03:33.179Z,98406.80
2018-03-31T22:06:01.022Z,98408.95
2018-03-31T22:08:28.848Z,98411.75
2018-03-31T22:10:56.629Z,98405.62
2018-03-31T22:13:29.924Z,98408.06
2018-03-31T22:15:57.717Z,98405.84
2018-03-31T22:18:25.509Z,98399.25
2018-03-31T22:20:53.294Z,98404.38
2018-03-31T22:23:21.094Z,98409.34
2018-03-31T22:25:49.123Z,98417.08
2018-03-31T22:28:18.058Z,98400.27
2018-03-31T22:30:45.847Z,98398.56
2018-03-31T22:33:13.641Z,98405.72
2018-03-31T22:35:41.530Z,98389.14
2018-03-31T22:38:09.346Z,98385.70
2018-03-31T22:40:37.130Z,98379.08
2018-03-31T22:43:04.927Z,98378.03
2018-03-31T22:45:32.791Z,98382.11
2018-03-31T22:48:00.576Z,98382.41
2018-03-31T22:50:28.419Z,98380.66
2018-03-31T22:52:56.177Z,98385.34
2018-03-31T22:55:24.035Z,98392.59
2018-03-31T22:57:51.869Z,98393.55
2018-03-31T23:00:19.784Z,98402.69
2018-03-31T23:02:47.583Z,98398.16
2018-03-31T23:05:15.479Z,98399.45
2018-03-31T23:07:43.321Z,98401.58
2018-03-31T23:10:11.816Z,98405.52
2018-03-31T23:12:40.089Z,98404.50
2018-03-31T23:15:07.887Z,98407.06
2018-03-31T23:17:35.707Z,98408.74
2018-03-31T23:20:03.592Z,98407.14
2018-03-31T23:22:31.379Z,98410.53
2018-03-31T23:24:59.228Z,98425.24
2018-03-31T23:27:27.037Z,98418.36
2018-03-31T23:29:54.848Z,98427.80
2018-03-31T23:32:22.635Z,98425.81
2018-03-31T23:34:50.457Z,98423.83
2018-03-31T23:37:18.242Z,98419.86
2018-03-31T23:39:46.117Z,98424.00
2018-03-31T23:42:13.894Z,98422.02
2018-03-31T23:44:41.727Z,98412.91
2018-03-31T23:47:09.565Z,98421.27
2018-03-31T23:49:37.373Z,98427.33
2018-03-31T23:52:05.200Z,98430.11
2018-03-31T23:54:33.004Z,98427.81
2018-03-31T23:57:00.789Z,98437.50
2018-03-31T23:59:28.564Z,98431.02
